Time;durP1;ratioP1;P1;durP2;ratioP2;P2;SDS_P1;SDS_P2;PMS_P1;PMS_P2;Temp;Humidity;BMP_temperature;BMP_pressure;BME280_temperature;BME280_humidity;BME280_pressure;Samples;Min_cycle;Max_cycle;Signal;HPM_P1;HPM_P2
2023/03/17 00:00:21;;;;;;;281.6;129.2;;;;;;;2.68;79.97461;936.4835;;;;
2023/03/17 00:02:58;;;;;;;15.4;7.8;;;;;;;2.71;79.97949;936.4406;;;;
2023/03/17 00:05:36;;;;;;;2;1.4;;;;;;;2.75;79.4834;936.3989;;;;
2023/03/17 00:08:02;;;;;;;9.5;6.1;;;;;;;2.77;79.63086;936.4412;;;;
2023/03/17 00:10:27;;;;;;;17.9;14.3;;;;;;;2.79;79.64551;936.3583;;;;
2023/03/17 00:12:54;;;;;;;3.3;3;;;;;;;2.79;79.5791;936.3884;;;;
2023/03/17 00:15:23;;;;;;;5.4;2;;;;;;;2.77;79.86719;936.35;;;;
2023/03/17 00:17:48;;;;;;;10.3;9.3;;;;;;;2.78;79.73438;936.2967;;;;
2023/03/17 00:20:14;;;;;;;4.8;3.4;;;;;;;2.82;79.41699;936.2671;;;;
2023/03/17 00:22:41;;;;;;;19.5;12.4;;;;;;;2.85;79.04297;936.2634;;;;
2023/03/17 00:25:07;;;;;;;4.5;2.7;;;;;;;2.87;78.84277;936.1744;;;;
2023/03/17 00:27:33;;;;;;;5.3;2.9;;;;;;;2.88;78.59863;936.1434;;;;
2023/03/17 00:30:27;;;;;;;3.8;2.6;;;;;;;2.94;77.95801;936.132;;;;
2023/03/17 00:32:54;;;;;;;3.6;1.9;;;;;;;3.04;77.17969;936.1561;;;;
2023/03/17 00:35:33;;;;;;;3.1;1.9;;;;;;;3.09;76.57129;936.1121;;;;
2023/03/17 00:38:03;;;;;;;4.2;2.2;;;;;;;3.01;76.52637;936.0781;;;;
2023/03/17 00:40:36;;;;;;;4.2;2.4;;;;;;;2.92;77.25977;936.0842;;;;
2023/03/17 00:43:02;;;;;;;4.2;2.2;;;;;;;2.81;77.81152;936.019;;;;
2023/03/17 00:45:27;;;;;;;3.1;1.8;;;;;;;2.71;78.35449;936.0137;;;;
2023/03/17 00:47:53;;;;;;;2;1.5;;;;;;;2.64;78.79883;935.9821;;;;
2023/03/17 00:50:21;;;;;;;2.2;1.5;;;;;;;2.56;79.2002;936.0405;;;;
2023/03/17 00:52:47;;;;;;;2.4;1.8;;;;;;;2.56;79.43555;936.0664;;;;
2023/03/17 00:55:18;;;;;;;1.8;1.7;;;;;;;2.57;79.5957;936.0457;;;;
2023/03/17 00:57:49;;;;;;;3.6;1.5;;;;;;;2.63;79.3252;936.0784;;;;
2023/03/17 01:00:16;;;;;;;2.1;1.4;;;;;;;2.64;79.06934;936.0366;;;;
2023/03/17 01:02:46;;;;;;;4.7;1.6;;;;;;;2.59;79.31738;936.0594;;;;
2023/03/17 01:05:17;;;;;;;2.8;1.5;;;;;;;2.47;79.66504;936.0121;;;;
2023/03/17 01:07:51;;;;;;;1.5;1.3;;;;;;;2.46;79.77539;936.0178;;;;
2023/03/17 01:10:13;;;;;;;2.3;1.7;;;;;;;2.47;79.58691;936.0027;;;;
2023/03/17 01:12:40;;;;;;;1.8;1.3;;;;;;;2.4;79.68555;936.0272;;;;
2023/03/17 01:15:07;;;;;;;3.4;1.7;;;;;;;2.34;79.95508;935.9623;;;;
2023/03/17 01:17:36;;;;;;;2.1;1.3;;;;;;;2.43;79.64746;935.9933;;;;
2023/03/17 01:20:04;;;;;;;2.2;1.4;;;;;;;2.42;79.58789;935.8561;;;;
2023/03/17 01:22:26;;;;;;;1.5;1.3;;;;;;;2.43;79.41211;935.9283;;;;
2023/03/17 01:25:00;;;;;;;2.8;1.7;;;;;;;2.47;79.26172;935.9568;;;;
2023/03/17 01:30:29;;;;;;;1.8;1.2;;;;;;;2.46;79.15918;935.8315;;;;
2023/03/17 01:32:58;;;;;;;2.2;1.3;;;;;;;2.51;79.08887;935.8161;;;;
2023/03/17 01:35:24;;;;;;;2.6;1.2;;;;;;;2.6;78.42188;935.8326;;;;
2023/03/17 01:37:51;;;;;;;2.5;1.5;;;;;;;2.58;78.66504;935.7219;;;;
2023/03/17 01:40:18;;;;;;;2.3;1.4;;;;;;;2.62;77.90039;935.6451;;;;
2023/03/17 01:42:42;;;;;;;3.3;1.6;;;;;;;2.66;77.66016;935.6724;;;;
2023/03/17 01:45:07;;;;;;;1.2;1.1;;;;;;;2.73;77.10156;935.6025;;;;
2023/03/17 01:47:32;;;;;;;1.7;1.5;;;;;;;2.76;76.88379;935.6421;;;;
2023/03/17 01:49:59;;;;;;;1.3;0.8;;;;;;;3.03;73.01563;935.5305;;;;
2023/03/17 01:52:23;;;;;;;1.9;1;;;;;;;2.93;75.50977;935.5047;;;;
2023/03/17 01:54:51;;;;;;;1.3;1.2;;;;;;;2.85;75.72168;935.4629;;;;
2023/03/17 01:57:15;;;;;;;2.2;1.3;;;;;;;2.96;75.47168;935.4791;;;;
2023/03/17 01:59:41;;;;;;;1.8;1.1;;;;;;;2.92;76.27246;935.4741;;;;
2023/03/17 02:02:10;;;;;;;2.2;1.3;;;;;;;2.82;77.00586;935.4785;;;;
2023/03/17 02:04:35;;;;;;;4.8;2.7;;;;;;;2.72;77.62598;935.4292;;;;
2023/03/17 02:07:01;;;;;;;4.8;1.8;;;;;;;2.71;77.56738;935.4373;;;;
2023/03/17 02:09:27;;;;;;;1.9;1.4;;;;;;;2.64;77.79004;935.4012;;;;
2023/03/17 02:11:52;;;;;;;2.6;1.6;;;;;;;2.51;78.24902;935.4303;;;;
2023/03/17 02:14:17;;;;;;;2.3;1.6;;;;;;;2.48;78.41211;935.3844;;;;
2023/03/17 02:16:45;;;;;;;1.9;1.5;;;;;;;2.45;78.35059;935.3514;;;;
2023/03/17 02:19:10;;;;;;;2;1.5;;;;;;;2.52;78.38672;935.3718;;;;
2023/03/17 02:21:36;;;;;;;2.8;1.6;;;;;;;2.61;77.89746;935.3161;;;;
2023/03/17 02:24:01;;;;;;;3.8;1.6;;;;;;;2.66;77.64941;935.3006;;;;
2023/03/17 02:26:28;;;;;;;2.8;1.6;;;;;;;2.7;77.34375;935.2643;;;;
2023/03/17 02:29:32;;;;;;;2.2;1.6;;;;;;;2.69;77.39648;935.2631;;;;
2023/03/17 02:32:01;;;;;;;1.7;1.4;;;;;;;2.72;77.17676;935.1886;;;;
2023/03/17 02:34:32;;;;;;;2.3;1.1;;;;;;;2.96;74.44141;935.2033;;;;
2023/03/17 02:36:58;;;;;;;2;1.1;;;;;;;3.28;71.2168;935.1328;;;;
2023/03/17 02:39:28;;;;;;;1.4;1.2;;;;;;;3.28;73.54199;935.1102;;;;
2023/03/17 02:42:22;;;;;;;3.1;1.5;;;;;;;3.05;74.87207;935.1499;;;;
2023/03/17 02:44:49;;;;;;;1.7;1.3;;;;;;;2.83;76.4043;935.0787;;;;
2023/03/17 02:47:14;;;;;;;1.5;1.3;;;;;;;2.65;77.88281;935.0809;;;;
2023/03/17 02:49:42;;;;;;;3.5;1.2;;;;;;;2.47;79.06934;934.9864;;;;
2023/03/17 02:52:08;;;;;;;1.5;1.2;;;;;;;2.48;78.7832;935.024;;;;
2023/03/17 02:54:34;;;;;;;1.8;1.1;;;;;;;2.54;78.63477;935.0109;;;;
2023/03/17 02:57:07;;;;;;;1.1;1;;;;;;;2.54;78.69043;934.9857;;;;
2023/03/17 02:59:32;;;;;;;2.3;1.4;;;;;;;2.56;78.50488;935.0344;;;;
2023/03/17 03:01:57;;;;;;;1.5;1.3;;;;;;;2.6;78.1416;934.9494;;;;
2023/03/17 03:04:26;;;;;;;2.1;1.4;;;;;;;2.58;77.94824;935.0295;;;;
2023/03/17 03:06:51;;;;;;;2.2;1.5;;;;;;;2.5;78.14746;935.1692;;;;
2023/03/17 03:09:16;;;;;;;3.3;1.4;;;;;;;2.52;77.95898;935.1344;;;;
2023/03/17 03:11:41;;;;;;;2.1;1.5;;;;;;;2.52;77.99219;935.1736;;;;
2023/03/17 03:14:10;;;;;;;1.7;1.2;;;;;;;2.49;78.23438;935.1908;;;;
2023/03/17 03:16:36;;;;;;;3.3;1.6;;;;;;;2.58;78.03809;935.2873;;;;
2023/03/17 03:19:04;;;;;;;3;1.4;;;;;;;2.65;77.23242;935.2217;;;;
2023/03/17 03:21:29;;;;;;;2;1.2;;;;;;;2.64;77.55664;935.1978;;;;
2023/03/17 03:23:55;;;;;;;1.6;1.2;;;;;;;2.69;77.66504;935.1656;;;;
2023/03/17 03:26:21;;;;;;;1.9;1.4;;;;;;;2.73;77.58398;935.1883;;;;
2023/03/17 03:28:48;;;;;;;1.8;1.3;;;;;;;2.75;77.60938;935.1559;;;;
2023/03/17 03:31:13;;;;;;;2.3;1.4;;;;;;;2.7;77.83691;935.1213;;;;
2023/03/17 03:33:39;;;;;;;1.6;1.2;;;;;;;2.69;77.83398;935.1241;;;;
2023/03/17 03:36:05;;;;;;;2.6;1.4;;;;;;;2.71;77.81641;935.1772;;;;
2023/03/17 03:38:30;;;;;;;2;1.3;;;;;;;2.68;77.97949;935.1969;;;;
2023/03/17 03:40:56;;;;;;;2.5;1.4;;;;;;;2.54;78.60254;935.1541;;;;
2023/03/17 03:43:23;;;;;;;1.7;1.3;;;;;;;2.47;79.00195;935.0776;;;;
2023/03/17 03:45:49;;;;;;;2;1.4;;;;;;;2.65;78.20801;935.1588;;;;
2023/03/17 03:48:14;;;;;;;2.1;1.5;;;;;;;2.48;79.08398;935.1983;;;;
2023/03/17 03:50:40;;;;;;;3.8;1.6;;;;;;;2.43;79.46777;935.1064;;;;
2023/03/17 03:53:06;;;;;;;2.4;1.5;;;;;;;2.5;79.3916;935.0923;;;;
2023/03/17 03:55:34;;;;;;;3.4;2.2;;;;;;;2.63;78.23828;934.9931;;;;
2023/03/17 03:57:59;;;;;;;4.1;1.9;;;;;;;2.72;77.38965;934.9528;;;;
2023/03/17 04:02:33;;;;;;;3.7;2.2;;;;;;;2.88;77.05176;934.8231;;;;
2023/03/17 04:04:58;;;;;;;2.7;1.5;;;;;;;3.15;74.82227;934.8014;;;;
2023/03/17 04:07:23;;;;;;;2.1;1.4;;;;;;;3.19;75.27734;934.7656;;;;
2023/03/17 04:09:49;;;;;;;2.8;1.8;;;;;;;2.97;76.39258;934.8503;;;;
2023/03/17 04:12:13;;;;;;;2.3;1.4;;;;;;;2.9;76.63965;934.805;;;;
2023/03/17 04:14:41;;;;;;;1.7;1.4;;;;;;;2.89;76.68262;934.8289;;;;
2023/03/17 04:17:05;;;;;;;1.5;1.1;;;;;;;2.91;76.58496;934.8256;;;;
2023/03/17 04:19:34;;;;;;;1.6;1.3;;;;;;;2.9;76.89551;934.7679;;;;
2023/03/17 04:21:59;;;;;;;1.8;1.5;;;;;;;2.86;76.8457;934.8187;;;;
2023/03/17 04:24:26;;;;;;;2.2;1.6;;;;;;;2.72;77.79492;934.8194;;;;
2023/03/17 04:26:51;;;;;;;2.7;1.6;;;;;;;2.76;78.07324;934.7726;;;;
2023/03/17 04:29:18;;;;;;;1.9;1.2;;;;;;;2.86;77.90039;934.7353;;;;
2023/03/17 04:31:43;;;;;;;2;1.3;;;;;;;3.11;75.33008;934.6555;;;;
2023/03/17 04:34:09;;;;;;;2.6;1.4;;;;;;;3.25;75.11914;934.7433;;;;
2023/03/17 04:36:34;;;;;;;1.1;0.9;;;;;;;3.24;75.52148;934.82;;;;
2023/03/17 04:39:00;;;;;;;1.4;0.9;;;;;;;3.11;76.41895;934.7867;;;;
2023/03/17 04:41:28;;;;;;;3.3;1.2;;;;;;;3.1;76.59668;934.8557;;;;
2023/03/17 04:43:53;;;;;;;1.5;1.2;;;;;;;2.99;76.86914;934.7921;;;;
2023/03/17 04:46:19;;;;;;;1.7;1.2;;;;;;;2.95;77.19727;934.7893;;;;
2023/03/17 04:48:44;;;;;;;2;1.3;;;;;;;2.95;76.91699;934.7689;;;;
2023/03/17 04:51:13;;;;;;;2.2;1.6;;;;;;;2.89;77.32227;934.7427;;;;
2023/03/17 04:53:38;;;;;;;1.8;1.2;;;;;;;2.94;77.12793;934.7283;;;;
2023/03/17 04:56:05;;;;;;;2.2;1.5;;;;;;;2.99;77.10449;934.6536;;;;
2023/03/17 04:58:31;;;;;;;3.6;1.7;;;;;;;3.03;76.89844;934.7386;;;;
2023/03/17 05:01:01;;;;;;;1.3;1.2;;;;;;;3.01;77.10645;934.7308;;;;
2023/03/17 05:03:24;;;;;;;2.5;1.4;;;;;;;3.05;76.96875;934.7006;;;;
2023/03/17 05:05:52;;;;;;;2.9;1.5;;;;;;;3.03;76.9541;934.7244;;;;
2023/03/17 05:08:18;;;;;;;3.6;1.5;;;;;;;3.05;76.93457;934.6833;;;;
2023/03/17 05:10:46;;;;;;;5.9;1.6;;;;;;;3.1;76.76367;934.6746;;;;
2023/03/17 05:13:11;;;;;;;3.3;2.1;;;;;;;3.02;76.96387;934.6744;;;;
2023/03/17 05:15:43;;;;;;;3.1;1.6;;;;;;;2.95;77.36426;934.7222;;;;
2023/03/17 05:18:08;;;;;;;5;2.2;;;;;;;3.17;74.43262;934.6219;;;;
2023/03/17 05:20:37;;;;;;;4.8;2.2;;;;;;;3.37;73.91699;934.6212;;;;
2023/03/17 05:23:02;;;;;;;3.3;1.4;;;;;;;3.62;70.46582;934.6794;;;;
2023/03/17 05:25:27;;;;;;;3.4;1.6;;;;;;;3.77;71.45605;934.6908;;;;
2023/03/17 05:27:55;;;;;;;7;2.5;;;;;;;3.83;71.55762;934.6386;;;;
2023/03/17 05:30:20;;;;;;;6;3.4;;;;;;;3.83;71.81543;934.6857;;;;
2023/03/17 05:32:47;;;;;;;8;3.8;;;;;;;3.7;72.96191;934.7092;;;;
2023/03/17 05:35:13;;;;;;;6.6;4.1;;;;;;;3.63;73.42188;934.6924;;;;
2023/03/17 05:37:38;;;;;;;6.7;2.9;;;;;;;3.6;72.04688;934.7683;;;;
2023/03/17 05:40:05;;;;;;;6.9;4.2;;;;;;;3.93;69.84277;934.6714;;;;
2023/03/17 05:42:30;;;;;;;7.8;4.4;;;;;;;3.92;70.81836;934.7214;;;;
2023/03/17 05:44:58;;;;;;;9.9;4.9;;;;;;;3.8;71.69922;934.704;;;;
2023/03/17 05:47:30;;;;;;;4.7;2.8;;;;;;;3.82;70.48828;934.7022;;;;
2023/03/17 05:50:59;;;;;;;5.7;2.8;;;;;;;3.85;71.29102;934.7046;;;;
2023/03/17 05:53:26;;;;;;;2.4;1.7;;;;;;;4.42;66.75977;934.5823;;;;
2023/03/17 05:55:51;;;;;;;9;2.7;;;;;;;4.42;68.39258;934.5683;;;;
2023/03/17 05:58:17;;;;;;;2.7;1.7;;;;;;;4.35;68.78613;934.5865;;;;
2023/03/17 06:00:41;;;;;;;7.6;2.1;;;;;;;4.54;67.13867;934.5854;;;;
2023/03/17 06:03:17;;;;;;;3.5;1.4;;;;;;;4.76;66.54395;934.5305;;;;
2023/03/17 06:06:46;;;;;;;1.4;1.3;;;;;;;4.77;66.92676;934.5748;;;;
2023/03/17 06:09:04;;;;;;;5.4;2;;;;;;;4.88;66.6748;934.5811;;;;
2023/03/17 06:11:29;;;;;;;3.7;1.9;;;;;;;5.01;67.17871;934.628;;;;
2023/03/17 06:14:18;;;;;;;1.6;1.5;;;;;;;5.11;67.01465;934.7123;;;;
2023/03/17 06:16:49;;;;;;;7.5;3.3;;;;;;;5.09;68.35254;934.6756;;;;
2023/03/17 06:19:15;;;;;;;7.9;3.6;;;;;;;4.87;69.11816;934.5636;;;;
2023/03/17 06:21:40;;;;;;;5.6;3.6;;;;;;;4.74;68.97363;934.5838;;;;
2023/03/17 06:24:07;;;;;;;12.6;5.8;;;;;;;4.52;70.05176;934.488;;;;
2023/03/17 06:26:33;;;;;;;9.1;4.1;;;;;;;4.7;69.67578;934.4683;;;;
2023/03/17 06:29:02;;;;;;;6.5;3;;;;;;;4.9;69.47363;934.4089;;;;
2023/03/17 06:31:27;;;;;;;4.6;2.6;;;;;;;5.1;68.38867;934.4651;;;;
2023/03/17 06:33:53;;;;;;;5.8;3.8;;;;;;;5.16;69.08594;934.5186;;;;
2023/03/17 06:36:18;;;;;;;4.8;3.6;;;;;;;5.16;69.23242;934.3939;;;;
2023/03/17 06:38:46;;;;;;;4.8;3;;;;;;;5.29;68.52051;934.4974;;;;
2023/03/17 06:44:22;;;;;;;3.9;2;;;;;;;5.88;65.14844;934.4496;;;;
2023/03/17 06:46:47;;;;;;;5.4;2.2;;;;;;;5.91;65.6377;934.4308;;;;
2023/03/17 06:49:14;;;;;;;4.4;3;;;;;;;6.05;64.13379;934.4267;;;;
2023/03/17 06:51:38;;;;;;;3.9;2.6;;;;;;;6.24;63.88086;934.4246;;;;
2023/03/17 06:54:05;;;;;;;6;4.1;;;;;;;6.32;65.74512;934.4543;;;;
2023/03/17 06:56:30;;;;;;;7.6;3.3;;;;;;;6.27;64.30273;934.3538;;;;
2023/03/17 06:58:58;;;;;;;4.8;2.9;;;;;;;6.6;62.98438;934.4417;;;;
2023/03/17 07:01:23;;;;;;;4.8;2.9;;;;;;;6.58;63.36426;934.45;;;;
2023/03/17 07:03:50;;;;;;;4.6;2.6;;;;;;;6.82;59.47168;934.4722;;;;
2023/03/17 07:06:15;;;;;;;7.4;3.6;;;;;;;6.95;59.37695;934.4426;;;;
2023/03/17 07:08:45;;;;;;;3.8;2.8;;;;;;;7.07;57.58105;934.4512;;;;
2023/03/17 07:11:14;;;;;;;6.4;3.7;;;;;;;7.11;60.22559;934.5026;;;;
2023/03/17 07:13:40;;;;;;;7.5;4.8;;;;;;;7;61.68359;934.4769;;;;
2023/03/17 07:16:05;;;;;;;14;7.6;;;;;;;6.84;63.03027;934.5231;;;;
2023/03/17 07:18:35;;;;;;;11.5;6.8;;;;;;;6.71;64.00684;934.5603;;;;
2023/03/17 07:20:59;;;;;;;15.8;9;;;;;;;6.57;65.01465;934.5961;;;;
2023/03/17 07:23:28;;;;;;;16.2;9.1;;;;;;;6.54;65.62207;934.5854;;;;
2023/03/17 07:25:52;;;;;;;12.7;5.9;;;;;;;6.59;63.84082;934.5388;;;;
2023/03/17 07:28:18;;;;;;;6.5;3.4;;;;;;;6.83;61.08203;934.569;;;;
2023/03/17 07:30:45;;;;;;;7;3.7;;;;;;;7.04;63.24023;934.5505;;;;
2023/03/17 07:33:07;;;;;;;11.5;5.5;;;;;;;7.05;63.34375;934.5578;;;;
2023/03/17 07:35:37;;;;;;;22.5;9.2;;;;;;;7.44;61.49609;934.6082;;;;
2023/03/17 07:38:05;;;;;;;11.8;5.1;;;;;;;8.22;57.01953;934.6096;;;;
2023/03/17 07:40:30;;;;;;;14;5.7;;;;;;;9.04;58.76855;934.5578;;;;
2023/03/17 07:42:58;;;;;;;8.9;4.7;;;;;;;9.45;52.83301;934.6047;;;;
2023/03/17 07:45:26;;;;;;;9.3;4.7;;;;;;;10.12;51.87793;934.5779;;;;
2023/03/17 07:47:58;;;;;;;7.8;4.8;;;;;;;10.38;51.22363;934.6291;;;;
2023/03/17 07:50:27;;;;;;;10.3;4.9;;;;;;;10.47;51.00586;934.5898;;;;
2023/03/17 07:52:55;;;;;;;12.1;4.6;;;;;;;11.32;49.09277;934.5673;;;;
2023/03/17 07:55:20;;;;;;;3.5;2;;;;;;;11.74;43.36914;934.5541;;;;
2023/03/17 07:57:50;;;;;;;6;2.4;;;;;;;12.26;43.31934;934.4943;;;;
2023/03/17 08:00:16;;;;;;;12.2;4.3;;;;;;;13.46;44.48438;934.4138;;;;
2023/03/17 08:02:44;;;;;;;8.1;3.9;;;;;;;14.08;43.44336;934.3417;;;;
2023/03/17 08:05:09;;;;;;;6;3.1;;;;;;;14.83;41.69629;934.3521;;;;
2023/03/17 08:07:37;;;;;;;1.7;0.9;;;;;;;16.25;36.9043;934.2585;;;;
2023/03/17 08:10:02;;;;;;;3.1;1;;;;;;;17.91;35.30078;934.2202;;;;
2023/03/17 08:12:30;;;;;;;2.2;0.8;;;;;;;15.84;35.18066;934.2494;;;;
2023/03/17 08:14:56;;;;;;;0.8;0.6;;;;;;;16.47;34.53711;934.2443;;;;
2023/03/17 08:17:26;;;;;;;1.4;0.8;;;;;;;17.77;32.80566;934.1719;;;;
2023/03/17 08:19:54;;;;;;;1.2;0.8;;;;;;;18.09;32.33008;934.17;;;;
2023/03/17 08:22:19;;;;;;;0.6;0.5;;;;;;;18.75;29.74902;934.0708;;;;
2023/03/17 08:24:44;;;;;;;0.9;0.7;;;;;;;17.66;30.46484;934.0703;;;;
2023/03/17 08:27:11;;;;;;;0.6;0.6;;;;;;;18.51;30.31445;934.0118;;;;
2023/03/17 08:29:35;;;;;;;0.4;0.3;;;;;;;18.64;29.52051;933.9861;;;;
2023/03/17 08:32:04;;;;;;;0.6;0.3;;;;;;;19.64;28.39844;933.9528;;;;
2023/03/17 08:34:29;;;;;;;1.3;0.8;;;;;;;18.88;27.97754;933.961;;;;
2023/03/17 08:36:56;;;;;;;2.5;0.7;;;;;;;19.43;28.20996;933.9669;;;;
2023/03/17 08:39:20;;;;;;;0.8;0.6;;;;;;;19.42;26.72949;933.9105;;;;
2023/03/17 08:41:49;;;;;;;0.7;0.5;;;;;;;21.47;24.67578;933.8563;;;;
2023/03/17 08:44:15;;;;;;;0.8;0.6;;;;;;;20.75;24.78809;933.8409;;;;
2023/03/17 08:46:41;;;;;;;0.5;0.5;;;;;;;22.74;22.73926;933.7739;;;;
2023/03/17 08:49:06;;;;;;;1.1;0.6;;;;;;;22.91;22.94824;933.7401;;;;
2023/03/17 08:51:33;;;;;;;0.7;0.5;;;;;;;22.86;22.28809;933.699;;;;
2023/03/17 08:53:58;;;;;;;0.6;0.4;;;;;;;20.83;24.33691;933.6731;;;;
2023/03/17 08:56:25;;;;;;;1.3;0.7;;;;;;;21.7;24.70117;933.6071;;;;
2023/03/17 08:58:50;;;;;;;0.9;0.4;;;;;;;21.11;24.03613;933.5945;;;;
2023/03/17 09:01:17;;;;;;;2;0.6;;;;;;;21.04;24.53613;933.5381;;;;
2023/03/17 09:03:42;;;;;;;1;0.5;;;;;;;23.07;22.99121;933.426;;;;
2023/03/17 09:06:11;;;;;;;0.4;0.4;;;;;;;23.97;21.13086;933.5173;;;;
2023/03/17 09:08:37;;;;;;;12.2;8.7;;;;;;;23.88;20.8916;933.4738;;;;
2023/03/17 09:11:04;;;;;;;2.3;0.9;;;;;;;23.8;23.7002;933.4814;;;;
2023/03/17 09:13:28;;;;;;;0.6;0.6;;;;;;;22.74;22.01172;933.4392;;;;
2023/03/17 09:15:54;;;;;;;0.7;0.5;;;;;;;22.09;22.02734;933.4644;;;;
2023/03/17 09:18:18;;;;;;;1.1;0.5;;;;;;;21.13;23.34766;933.4062;;;;
2023/03/17 09:20:45;;;;;;;1;0.5;;;;;;;20.94;24.37891;933.43;;;;
2023/03/17 09:23:10;;;;;;;0.5;0.5;;;;;;;21.22;24.31152;933.3832;;;;
2023/03/17 09:25:41;;;;;;;0.7;0.4;;;;;;;21.13;23.5459;933.3728;;;;
2023/03/17 09:28:06;;;;;;;1;0.5;;;;;;;22.51;24.08887;933.3323;;;;
2023/03/17 09:30:34;;;;;;;1.1;0.7;;;;;;;21.56;22.57422;933.3631;;;;
2023/03/17 09:32:59;;;;;;;1.1;0.5;;;;;;;22.92;22.83105;933.2937;;;;
2023/03/17 09:35:27;;;;;;;0.5;0.5;;;;;;;21.77;23.27539;933.3063;;;;
2023/03/17 09:37:52;;;;;;;0.8;0.5;;;;;;;21.44;22.97754;933.2665;;;;
2023/03/17 09:40:23;;;;;;;0.6;0.5;;;;;;;22.13;22.53223;933.1848;;;;
2023/03/17 09:42:51;;;;;;;2.4;0.7;;;;;;;22.45;23.19434;933.224;;;;
2023/03/17 09:45:19;;;;;;;1;0.6;;;;;;;22.17;21.83105;933.222;;;;
2023/03/17 09:47:44;;;;;;;0.8;0.5;;;;;;;22.37;23.43555;933.2428;;;;
2023/03/17 09:50:16;;;;;;;0.5;0.5;;;;;;;22.79;21.82617;933.2177;;;;
2023/03/17 09:52:41;;;;;;;0.5;0.5;;;;;;;22.32;23.11719;933.1384;;;;
2023/03/17 09:55:07;;;;;;;0.9;0.8;;;;;;;22.09;22.05078;933.1205;;;;
2023/03/17 09:57:33;;;;;;;0.9;0.6;;;;;;;22.05;22.92676;933.1144;;;;
2023/03/17 10:00:00;;;;;;;0.4;0.4;;;;;;;22.14;23.30762;933.069;;;;
2023/03/17 10:02:23;;;;;;;0.6;0.5;;;;;;;22.43;22.8291;933.0334;;;;
2023/03/17 10:04:51;;;;;;;1.6;0.6;;;;;;;22.71;22.19824;933.0366;;;;
2023/03/17 10:07:16;;;;;;;1;0.3;;;;;;;22.84;22.08691;932.9986;;;;
2023/03/17 10:09:42;;;;;;;1.5;0.5;;;;;;;22.85;21.48828;933.0349;;;;
2023/03/17 10:12:10;;;;;;;0.5;0.5;;;;;;;23.35;21.70117;933.0472;;;;
2023/03/17 10:14:35;;;;;;;0.9;0.6;;;;;;;23.34;21.07715;933.0569;;;;
2023/03/17 10:17:00;;;;;;;0.9;0.5;;;;;;;23.13;21.63184;932.9919;;;;
2023/03/17 10:19:28;;;;;;;1.1;0.5;;;;;;;23.38;22.69043;932.9367;;;;
2023/03/17 10:21:53;;;;;;;1;0.5;;;;;;;23.64;21.49219;932.9055;;;;
2023/03/17 10:24:22;;;;;;;0.8;0.6;;;;;;;23.47;20.81348;932.863;;;;
2023/03/17 10:26:47;;;;;;;2.3;0.8;;;;;;;22.42;21.3623;932.808;;;;
2023/03/17 10:29:12;;;;;;;2.7;0.7;;;;;;;23.08;20.61816;932.7395;;;;
2023/03/17 10:31:39;;;;;;;0.5;0.5;;;;;;;23.42;20.16504;932.7896;;;;
2023/03/17 10:34:05;;;;;;;1.7;0.9;;;;;;;23.6;20.77246;932.7698;;;;
2023/03/17 10:36:33;;;;;;;1.1;0.6;;;;;;;23.79;19.12207;932.7097;;;;
2023/03/17 10:38:57;;;;;;;1;0.6;;;;;;;23.31;19.38379;932.7598;;;;
2023/03/17 10:41:22;;;;;;;0.4;0.4;;;;;;;23.59;19.40723;932.7324;;;;
2023/03/17 10:43:47;;;;;;;0.3;0.3;;;;;;;24.39;19.26563;932.6584;;;;
2023/03/17 10:46:12;;;;;;;1;0.5;;;;;;;24.78;19.54199;932.6064;;;;
2023/03/17 10:48:41;;;;;;;0.3;0.3;;;;;;;25.01;18.54883;932.538;;;;
2023/03/17 10:51:06;;;;;;;0.3;0.3;;;;;;;25.74;18.61426;932.5045;;;;
2023/03/17 10:53:32;;;;;;;0.6;0.4;;;;;;;25.55;18.05176;932.4953;;;;
2023/03/17 10:56:02;;;;;;;1.3;0.6;;;;;;;25.77;18.15527;932.4636;;;;
2023/03/17 10:58:32;;;;;;;2.3;0.7;;;;;;;25.61;18.20801;932.4938;;;;
2023/03/17 11:00:58;;;;;;;0.4;0.3;;;;;;;24.98;18.35938;932.427;;;;
2023/03/17 11:03:32;;;;;;;1.4;0.6;;;;;;;24.65;19.41797;932.4938;;;;
2023/03/17 11:06:02;;;;;;;0.4;0.4;;;;;;;24.4;18.9834;932.4316;;;;
2023/03/17 11:08:34;;;;;;;1.7;0.4;;;;;;;25.07;18.90527;932.399;;;;
2023/03/17 11:10:58;;;;;;;1.1;0.5;;;;;;;25.92;20.00586;932.3915;;;;
2023/03/17 11:13:25;;;;;;;0.3;0.2;;;;;;;25.48;17.30469;932.385;;;;
2023/03/17 11:15:57;;;;;;;0.3;0.3;;;;;;;26.52;18.69434;932.3613;;;;
2023/03/17 11:18:29;;;;;;;0.3;0.3;;;;;;;27.41;17.61719;932.3475;;;;
2023/03/17 11:20:55;;;;;;;0.8;0.5;;;;;;;27.79;17.01367;932.2793;;;;
2023/03/17 11:23:21;;;;;;;0.5;0.5;;;;;;;27.71;16.06152;932.2252;;;;
2023/03/17 11:25:46;;;;;;;0.4;0.4;;;;;;;28.1;16.30078;932.158;;;;
2023/03/17 11:28:15;;;;;;;0.8;0.6;;;;;;;28.92;15.62793;932.1609;;;;
2023/03/17 11:30:37;;;;;;;0.5;0.5;;;;;;;26.59;15.47656;932.1714;;;;
2023/03/17 11:33:02;;;;;;;0.7;0.6;;;;;;;27.04;17.0332;932.1259;;;;
2023/03/17 11:35:31;;;;;;;0.4;0.4;;;;;;;27.33;17.94531;932.1303;;;;
2023/03/17 11:37:56;;;;;;;0.6;0.6;;;;;;;28.68;15.40527;932.0826;;;;
2023/03/17 11:40:25;;;;;;;0.3;0.2;;;;;;;29.18;15.17285;932.0276;;;;
2023/03/17 11:42:49;;;;;;;0.5;0.4;;;;;;;29.64;15.42676;931.9767;;;;
2023/03/17 11:45:14;;;;;;;0.6;0.5;;;;;;;30.4;14.90332;932.0117;;;;
2023/03/17 11:47:39;;;;;;;0.8;0.4;;;;;;;31.05;15.05664;932.0453;;;;
2023/03/17 11:50:04;;;;;;;0.5;0.5;;;;;;;31.28;15.05176;932.0419;;;;
2023/03/17 11:53:02;;;;;;;1.2;0.4;;;;;;;31.4;14.625;932.0125;;;;
2023/03/17 11:55:27;;;;;;;0.9;0.3;;;;;;;31.75;14.78027;932.0201;;;;
2023/03/17 11:57:52;;;;;;;0.6;0.4;;;;;;;31.67;15.29297;932.019;;;;
2023/03/17 12:00:17;;;;;;;0.5;0.5;;;;;;;30.96;15.61523;931.957;;;;
2023/03/17 12:02:45;;;;;;;0.6;0.4;;;;;;;29.85;17.38965;931.9783;;;;
2023/03/17 12:05:10;;;;;;;0.5;0.4;;;;;;;29.7;16.77637;931.9353;;;;
2023/03/17 12:07:36;;;;;;;0.5;0.5;;;;;;;28.89;19.04395;931.9431;;;;
2023/03/17 12:10:00;;;;;;;1.3;0.4;;;;;;;29.44;18.26855;931.936;;;;
2023/03/17 12:12:31;;;;;;;0.3;0.3;;;;;;;29.42;18.7793;931.9487;;;;
2023/03/17 12:14:56;;;;;;;1;0.4;;;;;;;29.72;19.76953;931.883;;;;
2023/03/17 12:17:21;;;;;;;1.2;0.5;;;;;;;29.73;18.92285;931.8169;;;;
2023/03/17 12:19:46;;;;;;;0.3;0.3;;;;;;;27.91;20.64063;931.9008;;;;
2023/03/17 12:22:12;;;;;;;0.8;0.5;;;;;;;27.83;21.88379;931.8742;;;;
2023/03/17 12:24:37;;;;;;;0.9;0.5;;;;;;;28.13;19.99707;931.7988;;;;
2023/03/17 12:27:02;;;;;;;1.3;0.6;;;;;;;28.38;19.91309;931.7843;;;;
2023/03/17 12:29:27;;;;;;;1.7;1.1;;;;;;;28.43;19.76074;931.7512;;;;
2023/03/17 12:31:54;;;;;;;2.9;0.9;;;;;;;26.96;22.94336;931.7406;;;;
2023/03/17 12:34:21;;;;;;;0.7;0.5;;;;;;;26.29;23.64355;931.7445;;;;
2023/03/17 12:36:47;;;;;;;0.5;0.5;;;;;;;26.79;22.92383;931.7161;;;;
2023/03/17 12:39:18;;;;;;;2.1;0.6;;;;;;;27.4;21.55371;931.7155;;;;
2023/03/17 12:41:43;;;;;;;1.1;1;;;;;;;27.85;20.75684;931.6814;;;;
2023/03/17 12:44:10;;;;;;;0.6;0.6;;;;;;;28.71;20.32031;931.736;;;;
2023/03/17 12:46:37;;;;;;;1.2;0.5;;;;;;;29.4;19.68457;931.6861;;;;
2023/03/17 12:49:03;;;;;;;0.8;0.6;;;;;;;29.14;20.64941;931.6479;;;;
2023/03/17 12:51:27;;;;;;;1.8;0.5;;;;;;;28.97;20.52246;931.5461;;;;
2023/03/17 12:53:52;;;;;;;0.6;0.6;;;;;;;27.61;22.05078;931.5769;;;;
2023/03/17 12:56:17;;;;;;;0.8;0.7;;;;;;;27.9;21.13867;931.5222;;;;
2023/03/17 12:58:46;;;;;;;0.4;0.4;;;;;;;27.65;22.1123;931.5257;;;;
2023/03/17 13:01:11;;;;;;;0.7;0.5;;;;;;;28.28;22.23926;931.4673;;;;
2023/03/17 13:03:37;;;;;;;0.7;0.6;;;;;;;27.72;21.83105;931.459;;;;
2023/03/17 13:06:01;;;;;;;1.5;0.5;;;;;;;28.2;20.92773;931.4495;;;;
2023/03/17 13:08:27;;;;;;;0.8;0.5;;;;;;;28.59;21.63477;931.4749;;;;
2023/03/17 13:10:55;;;;;;;0.7;0.5;;;;;;;29.48;20.2959;931.4372;;;;
2023/03/17 13:13:22;;;;;;;0.9;0.7;;;;;;;30.13;19.14355;931.3733;;;;
2023/03/17 13:15:47;;;;;;;0.8;0.7;;;;;;;29.73;20.21191;931.3279;;;;
2023/03/17 13:18:12;;;;;;;1.7;0.6;;;;;;;28.2;22.13965;931.3557;;;;
2023/03/17 13:20:39;;;;;;;0.7;0.6;;;;;;;27.03;24.13281;931.4117;;;;
2023/03/17 13:23:09;;;;;;;1.2;0.8;;;;;;;27.42;23.2041;931.2736;;;;
2023/03/17 13:25:34;;;;;;;1;0.9;;;;;;;26.92;23.80664;931.3641;;;;
2023/03/17 13:27:59;;;;;;;3.4;0.8;;;;;;;26.49;25.18066;931.3121;;;;
2023/03/17 13:30:25;;;;;;;1.1;0.6;;;;;;;26.11;24.52051;931.278;;;;
2023/03/17 13:32:51;;;;;;;1.1;0.8;;;;;;;25.86;24.74316;931.2891;;;;
2023/03/17 13:35:16;;;;;;;1.1;0.6;;;;;;;25.58;24.98828;931.1733;;;;
2023/03/17 13:37:47;;;;;;;0.5;0.5;;;;;;;25.42;26.36035;931.2;;;;
2023/03/17 13:40:17;;;;;;;1.3;0.6;;;;;;;24.97;25.74414;931.2402;;;;
2023/03/17 13:42:45;;;;;;;1.1;0.8;;;;;;;24.71;25.1875;931.2583;;;;
2023/03/17 13:45:15;;;;;;;1.2;0.6;;;;;;;24.19;26.58301;931.1494;;;;
2023/03/17 13:47:41;;;;;;;1.8;0.7;;;;;;;23.52;27.88379;931.2031;;;;
2023/03/17 13:50:09;;;;;;;2.6;0.6;;;;;;;22.91;27.49316;931.2438;;;;
2023/03/17 13:52:34;;;;;;;0.7;0.7;;;;;;;23;27.66309;931.2971;;;;
2023/03/17 13:54:59;;;;;;;0.5;0.5;;;;;;;23.23;27.31348;931.2108;;;;
2023/03/17 13:57:25;;;;;;;0.5;0.5;;;;;;;22.87;27.6084;931.2354;;;;
2023/03/17 13:59:49;;;;;;;0.9;0.4;;;;;;;22.64;28.60254;931.2202;;;;
2023/03/17 14:02:16;;;;;;;0.8;0.6;;;;;;;22.9;27.59766;931.2008;;;;
2023/03/17 14:04:45;;;;;;;1.9;0.8;;;;;;;23.32;27.16602;931.2026;;;;
2023/03/17 14:07:14;;;;;;;2.8;1;;;;;;;23.6;27.62988;931.202;;;;
2023/03/17 14:09:40;;;;;;;1;0.7;;;;;;;23.98;27.19434;931.2017;;;;
2023/03/17 14:12:04;;;;;;;0.8;0.7;;;;;;;23.87;27.62305;931.2265;;;;
2023/03/17 14:14:35;;;;;;;1.3;0.8;;;;;;;23.93;27.81543;931.2467;;;;
2023/03/17 14:16:59;;;;;;;1.6;1;;;;;;;24.06;27.91797;931.2402;;;;
2023/03/17 14:19:27;;;;;;;1.8;0.9;;;;;;;23.84;27.91602;931.2086;;;;
2023/03/17 14:21:51;;;;;;;1;0.9;;;;;;;24.49;27.22559;931.1403;;;;
2023/03/17 14:24:16;;;;;;;1.1;1;;;;;;;24.43;26.98633;931.1231;;;;
2023/03/17 14:26:41;;;;;;;1;0.9;;;;;;;24.17;28.14844;931.1358;;;;
2023/03/17 14:29:11;;;;;;;0.8;0.8;;;;;;;24.06;27.06934;931.1175;;;;
2023/03/17 14:31:37;;;;;;;2.4;0.8;;;;;;;23.78;27.79395;931.1117;;;;
2023/03/17 14:34:05;;;;;;;1.2;0.6;;;;;;;23.84;28.58691;931.1069;;;;
2023/03/17 14:36:31;;;;;;;0.8;0.8;;;;;;;23.19;29.12109;931.0712;;;;
2023/03/17 14:38:56;;;;;;;1;0.7;;;;;;;22.72;29.55859;931.0936;;;;